Time;durP1;ratioP1;P1;durP2;ratioP2;P2;SDS_P1;SDS_P2;PMS_P1;PMS_P2;Temp;Humidity;BMP_temperature;BMP_pressure;BME280_temperature;BME280_humidity;BME280_pressure;Samples;Min_cycle;Max_cycle;Signal;HPM_P1;HPM_P2
2023/10/06 00:02:30;;;;;;;5.55;4.32;;;10.60;99.90;;;;;;4974875;28;20209;-61
2023/10/06 00:04:56;;;;;;;9.40;4.55;;;10.60;99.90;;;;;;4974957;28;20183;-62
2023/10/06 00:07:24;;;;;;;11.68;5.35;;;10.50;99.90;;;;;;4974871;28;20255;-61
2023/10/06 00:09:53;;;;;;;7.93;4.97;;;10.50;99.90;;;;;;4957467;28;20541;-62
2023/10/06 00:12:19;;;;;;;11.02;4.75;;;10.50;99.90;;;;;;4974452;28;20231;-61
2023/10/06 00:14:48;;;;;;;8.43;4.55;;;10.50;99.90;;;;;;4957529;28;20193;-61
2023/10/06 00:17:17;;;;;;;9.52;4.35;;;10.50;99.90;;;;;;4968556;28;20192;-61
2023/10/06 00:19:43;;;;;;;8.90;4.68;;;10.50;99.90;;;;;;4994404;28;20183;-62
2023/10/06 00:24:37;;;;;;;6.38;4.38;;;10.30;99.90;;;;;;4993976;28;20584;-62
2023/10/06 00:27:03;;;;;;;7.88;4.63;;;10.30;99.90;;;;;;4993953;28;20244;-61
2023/10/06 00:29:29;;;;;;;8.32;4.47;;;10.40;99.90;;;;;;4994083;28;20644;-61
2023/10/06 00:32:42;;;;;;;7.75;5.22;;;10.50;99.90;;;;;;4994086;28;20699;-61
2023/10/06 00:34:44;;;;;;;9.85;4.82;;;10.60;99.90;;;;;;4980052;28;20196;-61
2023/10/06 00:37:11;;;;;;;6.63;4.75;;;10.70;99.90;;;;;;4993935;28;20183;-61
2023/10/06 00:39:37;;;;;;;10.13;4.95;;;10.80;99.90;;;;;;4993969;28;20173;-61
2023/10/06 00:42:04;;;;;;;8.60;4.72;;;10.70;99.90;;;;;;4994278;28;20196;-61
2023/10/06 00:44:30;;;;;;;7.68;5.38;;;10.60;99.90;;;;;;4994224;28;20161;-60
2023/10/06 00:46:59;;;;;;;18.77;6.10;;;10.60;99.90;;;;;;4993841;28;20204;-60
2023/10/06 00:49:33;;;;;;;16.75;5.70;;;10.50;99.90;;;;;;4993829;28;20227;-61
2023/10/06 00:52:06;;;;;;;10.73;6.32;;;10.30;99.90;;;;;;4992386;28;20206;-61
2023/10/06 00:54:32;;;;;;;13.77;6.18;;;10.30;99.90;;;;;;4994429;28;20606;-61
2023/10/06 00:57:08;;;;;;;9.45;4.82;;;10.30;99.90;;;;;;4994630;28;20561;-61
2023/10/06 00:59:35;;;;;;;8.38;4.72;;;10.40;99.90;;;;;;4993979;28;20184;-61
2023/10/06 01:02:01;;;;;;;11.13;5.22;;;10.40;99.90;;;;;;4976159;28;20200;-61
2023/10/06 01:04:33;;;;;;;9.10;4.85;;;10.30;99.90;;;;;;4993669;28;20231;-60
2023/10/06 01:07:00;;;;;;;8.20;4.68;;;10.40;99.90;;;;;;4976284;28;20207;-61
2023/10/06 01:09:34;;;;;;;9.63;5.13;;;10.30;99.90;;;;;;4993623;28;20175;-61
2023/10/06 01:12:05;;;;;;;9.82;5.88;;;10.30;99.90;;;;;;4993500;28;20250;-61
2023/10/06 01:14:34;;;;;;;13.55;7.50;;;10.40;99.90;;;;;;4994495;28;20201;-61
2023/10/06 01:17:18;;;;;;;15.63;6.53;;;10.40;99.90;;;;;;4993619;28;20176;-60
2023/10/06 01:19:48;;;;;;;16.58;5.97;;;10.40;99.90;;;;;;4976167;28;20196;-61
2023/10/06 01:22:25;;;;;;;9.15;5.05;;;10.20;99.90;;;;;;4996843;28;20577;-62
2023/10/06 01:24:54;;;;;;;9.68;5.30;;;10.20;99.90;;;;;;4997184;28;20188;-61
2023/10/06 01:27:26;;;;;;;7.82;4.45;;;10.10;99.90;;;;;;4997115;28;20562;-61
2023/10/06 01:32:49;;;;;;;9.00;4.70;;;10.00;99.90;;;;;;4997432;28;20203;-62
2023/10/06 01:35:15;;;;;;;7.70;4.40;;;9.90;99.90;;;;;;4997162;28;20218;-61
2023/10/06 01:37:43;;;;;;;8.43;5.00;;;9.90;99.90;;;;;;4997052;28;20211;-61
2023/10/06 01:40:43;;;;;;;8.70;5.40;;;10.00;99.90;;;;;;4997100;28;20180;-60
2023/10/06 01:43:12;;;;;;;11.93;5.90;;;10.00;99.90;;;;;;4993032;28;20212;-61
2023/10/06 01:45:44;;;;;;;12.32;5.43;;;10.20;99.90;;;;;;4997278;28;20188;-61
2023/10/06 01:50:39;;;;;;;12.18;5.70;;;10.00;99.90;;;;;;4996735;28;20169;-61
2023/10/06 01:53:18;;;;;;;8.32;5.40;;;9.90;99.90;;;;;;4996780;28;20239;-61
2023/10/06 01:55:54;;;;;;;7.45;5.43;;;9.80;99.90;;;;;;4996996;28;20161;-61
2023/10/06 01:58:20;;;;;;;9.63;5.50;;;9.70;99.90;;;;;;4996603;28;20164;-61
2023/10/06 02:00:48;;;;;;;9.32;5.40;;;9.70;99.90;;;;;;4996663;28;20208;-61
2023/10/06 02:03:18;;;;;;;8.23;4.95;;;9.70;99.90;;;;;;4996607;28;20219;-61
2023/10/06 02:05:44;;;;;;;9.30;5.07;;;9.70;99.90;;;;;;4996890;28;20185;-61
2023/10/06 02:08:10;;;;;;;5.82;4.97;;;9.70;99.90;;;;;;4996484;28;20176;-61
2023/10/06 02:10:37;;;;;;;11.18;5.13;;;9.70;99.90;;;;;;4991415;28;20188;-61
2023/10/06 02:13:05;;;;;;;10.38;5.25;;;9.60;99.90;;;;;;4976894;28;20665;-62
2023/10/06 02:15:32;;;;;;;7.90;5.00;;;9.60;99.90;;;;;;4977014;28;20173;-61
2023/10/06 02:17:58;;;;;;;7.32;4.80;;;9.60;99.90;;;;;;4976811;28;20201;-61
2023/10/06 02:22:53;;;;;;;9.93;5.40;;;9.60;99.90;;;;;;4977570;28;20212;-61
2023/10/06 02:25:20;;;;;;;9.00;4.75;;;9.50;99.90;;;;;;4976912;28;20192;-61
2023/10/06 02:27:47;;;;;;;7.88;4.63;;;9.50;99.90;;;;;;4976548;28;20264;-61
2023/10/06 02:30:15;;;;;;;10.25;4.70;;;9.60;99.90;;;;;;4976647;28;20181;-61
2023/10/06 02:32:45;;;;;;;9.18;4.78;;;9.50;99.90;;;;;;4976255;28;20227;-62
2023/10/06 02:35:17;;;;;;;6.80;4.90;;;9.60;99.90;;;;;;4976848;28;20227;-61
2023/10/06 02:37:45;;;;;;;9.43;5.20;;;9.60;99.90;;;;;;4976939;28;20296;-61
2023/10/06 02:40:11;;;;;;;7.07;5.07;;;9.50;99.90;;;;;;4975981;28;20188;-62
2023/10/06 02:42:52;;;;;;;8.25;6.20;;;9.60;99.90;;;;;;4976133;28;20212;-61
2023/10/06 02:45:20;;;;;;;8.80;5.57;;;9.70;99.90;;;;;;4976697;28;20612;-62
2023/10/06 02:47:52;;;;;;;8.18;5.20;;;9.60;99.90;;;;;;4976357;28;20183;-61
2023/10/06 02:50:20;;;;;;;6.32;4.82;;;9.70;99.90;;;;;;4975055;28;20176;-62
2023/10/06 02:52:47;;;;;;;9.75;5.70;;;9.70;99.90;;;;;;4976216;28;20291;-61
2023/10/06 02:55:19;;;;;;;7.50;5.38;;;9.70;99.90;;;;;;4976249;28;20699;-62
2023/10/06 02:57:56;;;;;;;9.80;5.47;;;9.70;99.90;;;;;;4976498;28;20581;-62
2023/10/06 03:02:56;;;;;;;7.97;5.57;;;9.70;99.90;;;;;;4976212;28;20208;-62
2023/10/06 03:05:39;;;;;;;13.38;6.10;;;9.70;99.90;;;;;;4977184;28;20630;-62
2023/10/06 03:08:11;;;;;;;9.00;5.37;;;9.70;99.90;;;;;;4976706;28;20620;-62
2023/10/06 03:10:43;;;;;;;9.40;6.00;;;9.70;99.90;;;;;;4976078;28;20194;-62
2023/10/06 03:13:16;;;;;;;7.10;5.30;;;9.60;99.90;;;;;;4975871;28;20169;-62
2023/10/06 03:15:46;;;;;;;8.48;5.05;;;9.60;99.90;;;;;;4976213;28;20197;-62
2023/10/06 03:18:13;;;;;;;9.30;5.37;;;9.60;99.90;;;;;;4976411;28;20189;-62
2023/10/06 03:20:49;;;;;;;8.32;5.28;;;9.60;99.90;;;;;;4975976;28;20216;-62
2023/10/06 03:23:38;;;;;;;8.60;4.97;;;9.50;99.90;;;;;;4976268;28;20173;-62
2023/10/06 03:26:04;;;;;;;8.20;4.90;;;9.50;99.90;;;;;;4958410;28;20264;-62
2023/10/06 03:28:36;;;;;;;12.52;5.20;;;9.40;99.90;;;;;;4958274;28;20185;-61
2023/10/06 03:31:22;;;;;;;7.60;5.03;;;9.50;99.90;;;;;;4975805;28;20231;-61
2023/10/06 03:33:54;;;;;;;9.95;5.50;;;9.40;99.90;;;;;;4975799;28;20260;-62
2023/10/06 03:37:34;;;;;;;5.88;4.78;;;9.30;99.90;;;;;;4975418;28;20166;-62
2023/10/06 03:39:22;;;;;;;8.60;5.15;;;9.30;99.90;;;;;;4966428;28;20670;-61
2023/10/06 03:41:52;;;;;;;6.77;4.77;;;9.30;99.90;;;;;;4975206;28;20216;-61
2023/10/06 03:44:26;;;;;;;6.85;4.82;;;9.20;99.90;;;;;;4973096;28;20219;-61
2023/10/06 03:47:00;;;;;;;8.25;4.60;;;9.20;99.90;;;;;;4957740;28;20220;-61
2023/10/06 03:49:26;;;;;;;6.53;4.60;;;9.20;99.90;;;;;;4989730;28;20239;-62
2023/10/06 03:51:55;;;;;;;9.00;4.35;;;9.20;99.90;;;;;;4975148;28;20197;-62
2023/10/06 03:54:22;;;;;;;6.22;4.10;;;9.20;99.90;;;;;;4975158;28;20182;-62
2023/10/06 03:56:49;;;;;;;7.07;4.35;;;9.20;99.90;;;;;;4975171;28;20669;-61
2023/10/06 03:59:16;;;;;;;7.07;4.70;;;9.10;99.90;;;;;;4974810;28;20180;-62
2023/10/06 04:01:44;;;;;;;6.57;4.28;;;9.10;99.90;;;;;;4975016;28;20666;-61
2023/10/06 04:04:12;;;;;;;5.77;4.47;;;9.20;99.90;;;;;;4975420;28;20677;-61
2023/10/06 04:06:39;;;;;;;8.00;5.10;;;9.30;99.90;;;;;;4974850;28;20173;-61
2023/10/06 04:09:05;;;;;;;8.85;4.50;;;9.30;99.90;;;;;;4989811;28;20662;-62
2023/10/06 04:11:31;;;;;;;7.05;4.55;;;9.30;99.90;;;;;;4975205;28;20201;-60
2023/10/06 04:13:57;;;;;;;7.72;4.85;;;9.20;99.90;;;;;;4974623;28;20646;-60
2023/10/06 04:16:23;;;;;;;5.53;4.75;;;9.30;99.90;;;;;;4972483;28;20195;-60
2023/10/06 04:18:49;;;;;;;8.48;4.93;;;9.40;99.90;;;;;;4983278;28;20259;-60
2023/10/06 04:21:16;;;;;;;9.57;5.47;;;9.40;99.90;;;;;;4994049;28;20251;-60
2023/10/06 04:23:41;;;;;;;9.87;5.17;;;9.50;99.90;;;;;;4994125;28;20452;-61
2023/10/06 04:26:09;;;;;;;11.63;5.43;;;9.70;99.90;;;;;;4993980;28;20192;-61
2023/10/06 04:28:36;;;;;;;11.33;6.60;;;9.80;99.90;;;;;;4993965;28;20600;-60
2023/10/06 04:31:02;;;;;;;7.93;6.23;;;9.90;99.90;;;;;;4993990;28;20616;-61
2023/10/06 04:33:30;;;;;;;8.93;6.00;;;10.00;99.90;;;;;;4994484;28;20223;-61
2023/10/06 04:35:59;;;;;;;9.85;5.75;;;10.00;99.90;;;;;;4994060;28;20176;-61
2023/10/06 04:38:29;;;;;;;11.35;6.25;;;10.00;99.90;;;;;;4993934;28;20238;-61
2023/10/06 04:40:58;;;;;;;10.57;6.07;;;10.10;99.90;;;;;;4986354;28;20211;-61
2023/10/06 04:43:24;;;;;;;8.73;5.30;;;10.10;99.90;;;;;;4974134;28;20670;-61
2023/10/06 04:45:55;;;;;;;12.60;5.47;;;10.10;99.90;;;;;;4974659;28;20248;-61
2023/10/06 04:48:21;;;;;;;7.50;5.47;;;10.10;99.90;;;;;;4976903;28;20180;-61
2023/10/06 04:50:50;;;;;;;8.30;5.95;;;10.20;99.90;;;;;;4994273;28;20240;-60
2023/10/06 04:53:16;;;;;;;9.97;5.93;;;10.30;99.90;;;;;;4994411;28;20520;-61
2023/10/06 04:55:43;;;;;;;14.55;6.35;;;10.30;99.90;;;;;;4996540;28;20184;-61
2023/10/06 04:58:17;;;;;;;6.30;5.47;;;10.40;99.90;;;;;;4997606;28;20191;-61
2023/10/06 05:00:49;;;;;;;9.63;5.43;;;10.40;99.90;;;;;;4997678;28;20168;-61
2023/10/06 05:03:15;;;;;;;8.77;5.90;;;10.50;99.90;;;;;;4997703;28;20672;-62
2023/10/06 05:05:42;;;;;;;11.47;6.00;;;10.60;99.90;;;;;;4998240;28;20235;-62
2023/10/06 05:08:09;;;;;;;10.02;5.75;;;10.60;99.90;;;;;;4997884;28;20188;-61
2023/10/06 05:10:36;;;;;;;7.25;5.28;;;10.60;99.90;;;;;;4992735;28;20272;-62
2023/10/06 05:13:05;;;;;;;11.40;5.87;;;10.60;99.90;;;;;;4977828;28;20177;-61
2023/10/06 05:15:33;;;;;;;14.68;6.32;;;10.60;99.90;;;;;;4978279;28;20177;-61
2023/10/06 05:18:00;;;;;;;9.50;5.60;;;10.50;99.90;;;;;;4977423;28;20642;-61
2023/10/06 05:20:29;;;;;;;12.87;6.07;;;10.50;99.90;;;;;;4997397;28;20192;-61
2023/10/06 05:23:14;;;;;;;15.90;5.90;;;10.50;99.90;;;;;;4997245;28;20203;-61
2023/10/06 05:25:41;;;;;;;9.77;6.18;;;10.40;99.90;;;;;;4997388;28;20195;-62
2023/10/06 05:28:10;;;;;;;14.07;5.38;;;10.50;99.90;;;;;;4997059;28;20220;-62
2023/10/06 05:30:37;;;;;;;9.52;5.68;;;10.50;99.90;;;;;;4995872;28;20184;-63
2023/10/06 05:33:04;;;;;;;9.13;6.03;;;10.50;99.90;;;;;;4995924;28;20686;-60
2023/10/06 05:35:38;;;;;;;8.30;5.80;;;10.50;99.90;;;;;;4997198;28;20204;-63
2023/10/06 05:38:08;;;;;;;13.18;6.60;;;10.50;99.90;;;;;;4995846;28;20645;-63
2023/10/06 05:40:35;;;;;;;9.25;5.50;;;10.50;99.90;;;;;;4992529;28;20646;-61
2023/10/06 05:43:02;;;;;;;11.73;6.20;;;10.50;99.90;;;;;;4977446;28;20232;-63
2023/10/06 05:45:29;;;;;;;13.65;6.05;;;10.50;99.90;;;;;;4977456;28;20177;-62
2023/10/06 05:47:58;;;;;;;11.38;5.55;;;10.60;99.90;;;;;;4976304;28;20705;-63
2023/10/06 05:50:28;;;;;;;11.13;6.17;;;10.60;99.90;;;;;;4996946;28;20200;-63
2023/10/06 05:53:08;;;;;;;10.60;6.13;;;10.70;99.90;;;;;;4996834;28;20192;-61
2023/10/06 05:55:41;;;;;;;18.83;6.68;;;10.70;99.90;;;;;;4997147;28;20164;-61
2023/10/06 05:58:19;;;;;;;9.13;6.13;;;10.80;99.90;;;;;;4978988;28;20204;-60
2023/10/06 06:01:05;;;;;;;9.60;6.00;;;10.80;99.90;;;;;;4996829;28;20156;-60
2023/10/06 06:03:32;;;;;;;9.75;7.30;;;10.80;99.90;;;;;;4996575;28;20646;-60
2023/10/06 06:06:08;;;;;;;9.20;6.20;;;10.90;99.90;;;;;;4996054;28;20203;-62
2023/10/06 06:08:39;;;;;;;12.57;5.95;;;10.80;99.90;;;;;;4996520;28;20164;-62
2023/10/06 06:11:05;;;;;;;13.30;6.60;;;10.90;99.90;;;;;;4987660;28;20201;-61
2023/10/06 06:13:33;;;;;;;8.95;6.15;;;10.90;99.90;;;;;;4959347;28;20556;-61
2023/10/06 06:15:59;;;;;;;12.30;6.47;;;11.00;99.90;;;;;;4977170;28;20168;-61
2023/10/06 06:18:27;;;;;;;9.45;6.10;;;11.00;99.90;;;;;;4979812;28;20242;-61
2023/10/06 06:20:53;;;;;;;8.87;5.73;;;11.00;99.90;;;;;;4996290;28;20193;-61
2023/10/06 06:23:20;;;;;;;14.07;6.33;;;11.00;99.90;;;;;;4978699;28;20216;-61
2023/10/06 06:25:46;;;;;;;11.83;6.10;;;11.10;99.90;;;;;;4996114;28;20672;-60
2023/10/06 06:28:12;;;;;;;10.07;5.93;;;11.10;99.90;;;;;;4995884;28;20184;-60
2023/10/06 06:30:39;;;;;;;14.23;6.38;;;11.20;99.90;;;;;;4995902;28;20264;-61
2023/10/06 06:33:08;;;;;;;10.85;6.30;;;11.20;99.90;;;;;;4996458;28;20259;-61
2023/10/06 06:35:35;;;;;;;7.85;5.28;;;11.30;99.90;;;;;;4995984;28;20189;-60
2023/10/06 06:38:04;;;;;;;10.83;6.10;;;11.40;99.90;;;;;;4996172;28;20188;-61
2023/10/06 06:40:31;;;;;;;13.40;5.88;;;11.50;99.90;;;;;;4992173;28;20282;-62
2023/10/06 06:42:58;;;;;;;9.35;5.90;;;11.60;99.90;;;;;;4958846;28;20665;-61
2023/10/06 06:45:28;;;;;;;9.25;5.57;;;11.70;99.90;;;;;;4958985;28;20185;-60
2023/10/06 06:47:54;;;;;;;8.90;5.72;;;11.80;99.90;;;;;;4975304;28;20597;-60
2023/10/06 06:50:21;;;;;;;11.27;6.57;;;11.90;99.90;;;;;;4996011;28;20536;-60
2023/10/06 06:52:54;;;;;;;9.05;5.60;;;11.90;99.90;;;;;;4995588;28;20219;-63
2023/10/06 06:55:21;;;;;;;11.68;5.95;;;12.00;99.90;;;;;;4995799;28;20215;-62
2023/10/06 06:57:50;;;;;;;14.02;6.00;;;12.10;99.90;;;;;;4996187;28;20208;-61
2023/10/06 07:00:24;;;;;;;10.55;5.30;;;12.10;99.90;;;;;;4995537;28;20177;-61
2023/10/06 07:02:51;;;;;;;10.20;5.68;;;12.20;99.90;;;;;;4995426;28;20231;-60
2023/10/06 07:05:18;;;;;;;13.10;5.75;;;12.40;99.90;;;;;;4995462;28;20175;-61
2023/10/06 07:07:45;;;;;;;13.15;5.22;;;12.50;99.90;;;;;;4995483;28;20703;-61
2023/10/06 07:10:18;;;;;;;15.65;6.55;;;12.50;99.90;;;;;;4993746;28;20653;-61
2023/10/06 07:12:44;;;;;;;12.52;5.35;;;12.70;99.90;;;;;;4975786;28;20210;-61
2023/10/06 07:15:20;;;;;;;12.50;5.30;;;12.80;99.90;;;;;;4975648;28;20181;-61
2023/10/06 07:17:53;;;;;;;11.48;6.10;;;12.90;99.90;;;;;;4972856;28;20184;-60
2023/10/06 07:20:19;;;;;;;15.40;6.15;;;13.20;99.90;;;;;;4994044;28;20605;-61
2023/10/06 07:22:46;;;;;;;18.75;5.65;;;13.40;99.90;;;;;;4995058;28;20201;-61
2023/10/06 07:25:15;;;;;;;7.30;5.22;;;13.70;99.90;;;;;;4995094;28;20564;-60
2023/10/06 07:27:52;;;;;;;6.82;5.00;;;13.80;99.90;;;;;;4995154;28;20256;-63
2023/10/06 07:30:22;;;;;;;8.27;4.80;;;14.10;99.90;;;;;;4977720;28;20175;-62
2023/10/06 07:32:49;;;;;;;7.53;4.60;;;14.30;99.90;;;;;;4994909;28;20210;-62
2023/10/06 07:35:17;;;;;;;10.52;5.20;;;14.40;99.90;;;;;;4995115;28;20255;-60
2023/10/06 07:37:48;;;;;;;11.05;4.60;;;14.40;99.90;;;;;;4994978;28;20576;-61
2023/10/06 07:40:21;;;;;;;13.07;4.55;;;14.50;99.90;;;;;;5071566;28;20532;-61
2023/10/06 07:42:51;;;;;;;7.40;4.88;;;14.60;99.90;;;;;;5071080;28;20223;-62
2023/10/06 07:45:18;;;;;;;6.88;4.20;;;14.50;99.90;;;;;;5070536;28;20170;-62
2023/10/06 07:47:45;;;;;;;13.60;4.40;;;14.40;99.90;;;;;;5057001;28;20202;-61
2023/10/06 07:50:15;;;;;;;14.65;5.13;;;14.30;99.90;;;;;;5050872;28;20186;-62
2023/10/06 07:52:42;;;;;;;8.05;4.70;;;14.30;99.90;;;;;;5050603;28;20742;-62
2023/10/06 07:55:09;;;;;;;8.63;4.28;;;14.20;99.90;;;;;;5050540;28;20584;-62
2023/10/06 07:57:45;;;;;;;8.25;4.22;;;14.20;99.90;;;;;;5050695;28;20231;-63
2023/10/06 08:00:18;;;;;;;7.85;4.57;;;14.20;99.90;;;;;;5050166;28;20187;-62
2023/10/06 08:02:47;;;;;;;8.70;4.20;;;14.30;99.90;;;;;;5050378;28;20191;-62
2023/10/06 08:05:17;;;;;;;7.07;4.00;;;14.30;99.90;;;;;;5050282;28;20209;-61
2023/10/06 08:07:43;;;;;;;7.43;4.28;;;14.40;99.90;;;;;;5050301;28;20190;-61
2023/10/06 08:10:13;;;;;;;13.85;4.60;;;14.60;99.90;;;;;;5051683;28;20679;-62
2023/10/06 08:12:47;;;;;;;8.13;4.32;;;14.80;99.90;;;;;;5070174;28;20232;-62
2023/10/06 08:15:17;;;;;;;13.05;4.28;;;14.80;99.90;;;;;;5069937;28;20170;-61
2023/10/06 08:17:47;;;;;;;11.93;5.05;;;14.80;99.90;;;;;;5056904;28;20182;-62
2023/10/06 08:20:15;;;;;;;8.30;4.43;;;14.70;99.90;;;;;;5049989;28;20194;-62
2023/10/06 08:22:46;;;;;;;7.10;4.00;;;14.70;99.90;;;;;;5050140;28;20187;-61
2023/10/06 08:25:19;;;;;;;9.45;4.70;;;14.60;99.90;;;;;;5048790;28;20183;-62
2023/10/06 08:27:47;;;;;;;10.63;4.50;;;14.50;99.90;;;;;;5050335;28;20151;-61
2023/10/06 08:30:18;;;;;;;9.40;4.63;;;14.50;99.90;;;;;;5049780;28;20170;-62
2023/10/06 08:32:50;;;;;;;9.77;4.55;;;14.50;99.90;;;;;;5049869;28;20701;-62
2023/10/06 08:35:16;;;;;;;12.43;4.85;;;14.50;99.90;;;;;;5048914;28;20531;-62
2023/10/06 08:37:46;;;;;;;8.65;4.55;;;14.50;99.90;;;;;;5048581;28;20597;-62
2023/10/06 08:40:17;;;;;;;9.10;4.72;;;14.60;99.90;;;;;;5051412;28;20221;-61
2023/10/06 08:42:53;;;;;;;6.72;4.45;;;14.80;99.90;;;;;;5069758;28;20196;-62
2023/10/06 08:45:24;;;;;;;11.48;4.45;;;15.10;99.90;;;;;;5069719;28;20158;-62
2023/10/06 08:47:54;;;;;;;12.30;5.20;;;15.40;99.90;;;;;;5055432;28;20182;-61
2023/10/06 08:50:23;;;;;;;11.45;4.72;;;15.60;99.90;;;;;;5044603;28;20162;-61
2023/10/06 08:52:53;;;;;;;10.27;4.50;;;15.80;99.90;;;;;;5034972;28;20199;-62
2023/10/06 08:55:20;;;;;;;9.07;4.38;;;15.80;99.90;;;;;;5036264;28;20206;-61
2023/10/06 08:57:47;;;;;;;9.13;4.60;;;15.70;99.90;;;;;;5034908;28;20179;-61
2023/10/06 09:00:15;;;;;;;6.82;4.28;;;15.70;99.90;;;;;;5034586;28;20246;-61
2023/10/06 09:02:48;;;;;;;9.27;4.22;;;15.90;99.90;;;;;;5035922;28;20229;-61
2023/10/06 09:05:14;;;;;;;8.50;4.05;;;15.90;99.90;;;;;;5036019;28;20177;-61
2023/10/06 09:08:01;;;;;;;8.88;4.55;;;15.90;99.90;;;;;;5035973;28;20202;-61
2023/10/06 09:10:30;;;;;;;11.75;4.45;;;16.00;99.90;;;;;;5038404;28;20178;-61
2023/10/06 09:13:02;;;;;;;9.15;4.70;;;16.00;99.90;;;;;;5055846;28;20199;-61
2023/10/06 09:15:29;;;;;;;8.90;4.15;;;16.10;99.90;;;;;;5055591;28;20595;-62
2023/10/06 09:17:56;;;;;;;8.40;4.28;;;16.10;99.90;;;;;;5039375;28;20187;-62
2023/10/06 09:20:37;;;;;;;10.68;4.53;;;16.10;99.90;;;;;;5035698;28;20613;-62
2023/10/06 09:23:03;;;;;;;10.43;4.25;;;16.20;99.90;;;;;;5035747;28;20248;-62
2023/10/06 09:25:45;;;;;;;8.65;4.63;;;16.20;99.90;;;;;;5036199;28;20250;-62
2023/10/06 09:28:16;;;;;;;9.32;4.30;;;16.20;99.90;;;;;;5035675;28;20217;-61
2023/10/06 09:31:00;;;;;;;10.18;4.47;;;16.20;99.90;;;;;;5035523;28;20147;-62
2023/10/06 09:33:43;;;;;;;9.38;4.60;;;16.30;99.90;;;;;;5034278;28;20167;-64
2023/10/06 09:36:16;;;;;;;10.70;4.20;;;16.30;99.90;;;;;;5034281;28;20171;-62
2023/10/06 09:38:44;;;;;;;7.68;4.38;;;16.40;99.90;;;;;;5035465;28;20210;-62
2023/10/06 09:41:11;;;;;;;11.40;4.75;;;16.40;99.90;;;;;;5043624;28;20301;-63
2023/10/06 09:43:41;;;;;;;9.15;4.43;;;16.40;99.90;;;;;;5054890;28;20174;-61
2023/10/06 09:46:13;;;;;;;11.13;4.43;;;16.40;99.90;;;;;;5053680;28;20182;-63
2023/10/06 09:48:42;;;;;;;7.35;4.57;;;16.40;99.90;;;;;;5035483;28;20298;-62
2023/10/06 09:51:09;;;;;;;8.43;4.50;;;16.50;99.90;;;;;;5033717;28;20629;-62
2023/10/06 09:53:43;;;;;;;10.90;4.55;;;16.60;99.90;;;;;;5035016;28;20175;-64
2023/10/06 09:56:12;;;;;;;11.02;5.13;;;16.60;99.90;;;;;;5033750;28;20178;-62
2023/10/06 09:58:51;;;;;;;13.23;5.22;;;16.60;99.90;;;;;;5034633;28;20655;-61
2023/10/06 10:01:20;;;;;;;11.10;4.70;;;16.60;99.90;;;;;;5034570;28;20214;-62
2023/10/06 10:03:48;;;;;;;8.77;5.10;;;16.60;99.90;;;;;;5034303;28;20187;-64
2023/10/06 10:06:16;;;;;;;8.57;4.97;;;16.80;99.90;;;;;;5035543;28;20183;-63
2023/10/06 10:08:42;;;;;;;7.07;4.90;;;16.90;99.90;;;;;;5034770;28;20193;-63
2023/10/06 10:11:28;;;;;;;8.90;4.25;;;17.00;99.90;;;;;;5044070;28;20221;-63
2023/10/06 10:14:33;;;;;;;10.40;4.47;;;17.10;99.90;;;;;;5054765;28;20162;-63
2023/10/06 10:17:18;;;;;;;12.88;5.32;;;17.10;99.90;;;;;;5045790;28;20190;-63
2023/10/06 10:19:46;;;;;;;11.32;4.63;;;17.10;99.90;;;;;;5034362;28;20190;-63
2023/10/06 10:22:13;;;;;;;7.68;3.90;;;17.20;99.90;;;;;;5034383;28;20202;-63
2023/10/06 10:24:40;;;;;;;11.23;5.05;;;17.30;99.90;;;;;;5034367;28;20541;-63
2023/10/06 10:27:22;;;;;;;8.70;4.60;;;17.50;99.90;;;;;;5033091;28;20171;-63
2023/10/06 10:29:49;;;;;;;8.68;3.65;;;17.50;99.90;;;;;;5032847;28;20258;-63
2023/10/06 10:32:17;;;;;;;9.98;4.45;;;17.50;99.90;;;;;;5034350;28;20564;-62
2023/10/06 10:35:05;;;;;;;13.05;4.80;;;17.40;99.90;;;;;;5034269;28;20186;-62
2023/10/06 10:37:31;;;;;;;11.55;4.75;;;17.40;99.90;;;;;;5034257;28;20171;-63
2023/10/06 10:39:57;;;;;;;10.18;4.40;;;17.50;99.90;;;;;;5033894;28;20637;-63
2023/10/06 10:42:37;;;;;;;10.70;5.47;;;17.70;99.90;;;;;;5053768;28;20611;-63
2023/10/06 10:45:30;;;;;;;10.88;4.70;;;17.80;99.90;;;;;;5053979;28;20208;-63
2023/10/06 10:47:58;;;;;;;9.30;3.92;;;17.90;99.90;;;;;;5038739;28;20175;-62
2023/10/06 10:50:52;;;;;;;14.48;4.75;;;17.90;99.90;;;;;;5033970;28;20171;-62
2023/10/06 10:53:20;;;;;;;10.57;4.15;;;17.90;99.90;;;;;;5033847;28;20171;-63
2023/10/06 10:55:56;;;;;;;8.52;4.10;;;17.80;99.90;;;;;;5034383;28;20180;-63
2023/10/06 10:58:44;;;;;;;11.85;4.80;;;17.90;99.90;;;;;;5033781;28;20202;-63
2023/10/06 11:01:24;;;;;;;9.15;4.00;;;18.10;99.90;;;;;;5033162;28;20219;-63
2023/10/06 11:04:35;;;;;;;10.00;4.30;;;18.30;99.90;;;;;;5033706;28;20254;-63
2023/10/06 11:07:16;;;;;;;9.80;4.15;;;18.40;99.90;;;;;;5033742;28;20249;-64
2023/10/06 11:09:52;;;;;;;10.02;4.43;;;18.20;99.90;;;;;;5032413;28;20179;-63
2023/10/06 11:12:22;;;;;;;9.50;4.20;;;18.10;99.90;;;;;;5052541;28;20288;-63
2023/10/06 11:14:51;;;;;;;9.18;4.20;;;18.00;99.90;;;;;;5052993;28;20181;-63
2023/10/06 11:17:26;;;;;;;11.80;4.63;;;18.30;99.90;;;;;;5043887;28;20207;-63
2023/10/06 11:20:27;;;;;;;9.45;4.25;;;18.50;99.90;;;;;;5033739;28;20198;-62
2023/10/06 11:23:00;;;;;;;7.57;3.70;;;18.40;99.90;;;;;;5033585;28;20186;-62
2023/10/06 11:25:32;;;;;;;12.02;4.90;;;18.10;99.90;;;;;;5033739;28;20243;-62
2023/10/06 11:28:05;;;;;;;7.95;4.53;;;17.90;99.90;;;;;;5033420;28;20161;-63
2023/10/06 11:30:33;;;;;;;10.27;4.25;;;17.70;99.90;;;;;;5033209;28;20151;-61
2023/10/06 11:33:06;;;;;;;9.23;4.25;;;17.60;99.90;;;;;;5033563;28;20650;-62
2023/10/06 11:35:33;;;;;;;10.18;4.47;;;17.50;99.90;;;;;;5033663;28;20156;-62
2023/10/06 11:38:07;;;;;;;8.65;4.10;;;17.50;99.90;;;;;;5033978;28;20554;-62
2023/10/06 11:40:35;;;;;;;11.50;4.57;;;17.90;99.90;;;;;;5037920;28;20182;-62
2023/10/06 11:43:21;;;;;;;8.05;3.90;;;18.20;99.90;;;;;;5053174;28;20249;-62
2023/10/06 11:45:48;;;;;;;11.25;4.35;;;18.60;99.90;;;;;;5052968;28;20186;-62
2023/10/06 11:48:33;;;;;;;6.43;3.78;;;18.90;99.90;;;;;;5035763;28;20547;-62
2023/10/06 11:51:12;;;;;;;12.15;4.55;;;19.00;99.90;;;;;;5033087;28;20604;-62
2023/10/06 11:53:40;;;;;;;12.32;4.35;;;18.90;99.90;;;;;;5033235;28;20212;-62
2023/10/06 11:56:10;;;;;;;8.13;3.88;;;18.80;99.90;;;;;;5033685;28;20180;-61
2023/10/06 11:58:37;;;;;;;10.52;4.00;;;18.80;99.90;;;;;;5033095;28;20349;-62
2023/10/06 12:01:04;;;;;;;7.60;4.00;;;18.80;99.90;;;;;;5032886;28;20187;-62
2023/10/06 12:03:42;;;;;;;8.48;4.00;;;18.70;99.90;;;;;;5033426;28;20693;-62
2023/10/06 12:06:12;;;;;;;7.95;4.32;;;18.80;99.90;;;;;;5033097;28;20155;-61
2023/10/06 12:08:44;;;;;;;10.88;4.22;;;19.10;99.90;;;;;;5033148;28;20258;-61
2023/10/06 12:11:12;;;;;;;8.35;4.03;;;19.30;99.90;;;;;;5042701;28;20683;-62
2023/10/06 12:13:39;;;;;;;6.82;3.92;;;19.40;99.90;;;;;;5052966;28;20178;-62
2023/10/06 12:16:16;;;;;;;15.73;4.60;;;19.70;99.90;;;;;;5053193;28;20609;-62
2023/10/06 12:18:46;;;;;;;10.35;3.72;;;19.90;99.90;;;;;;5013841;28;20227;-62
2023/10/06 12:21:15;;;;;;;9.80;4.00;;;20.10;99.90;;;;;;5013431;28;20700;-62
2023/10/06 12:23:45;;;;;;;7.85;3.90;;;20.10;99.90;;;;;;5013181;28;20176;-64
2023/10/06 12:26:11;;;;;;;7.60;3.58;;;20.10;99.90;;;;;;5015740;28;20156;-62
2023/10/06 12:28:42;;;;;;;11.35;4.03;;;19.80;99.90;;;;;;5016838;28;20644;-63
2023/10/06 12:31:11;;;;;;;11.93;4.15;;;19.90;99.90;;;;;;5016757;28;20195;-62
2023/10/06 12:33:38;;;;;;;9.43;3.30;;;19.70;99.90;;;;;;5016764;28;20692;-62
2023/10/06 12:36:12;;;;;;;8.68;3.70;;;19.60;99.90;;;;;;5016938;28;20234;-62
2023/10/06 12:38:42;;;;;;;8.60;3.28;;;19.50;99.90;;;;;;5016909;28;20208;-62
2023/10/06 12:41:08;;;;;;;12.10;4.47;;;19.50;99.90;;;;;;5035131;28;20248;-63
2023/10/06 12:43:35;;;;;;;8.52;3.67;;;19.40;99.90;;;;;;5056269;28;20167;-63
2023/10/06 12:46:03;;;;;;;8.65;3.92;;;19.30;99.90;;;;;;5056443;28;20641;-62
2023/10/06 12:48:30;;;;;;;8.15;3.60;;;19.10;99.90;;;;;;5036710;28;20187;-62
2023/10/06 12:50:56;;;;;;;8.30;3.53;;;19.00;99.90;;;;;;5036389;28;20209;-63
2023/10/06 12:53:22;;;;;;;6.57;3.65;;;19.10;99.90;;;;;;5036465;28;20179;-63
2023/10/06 12:55:56;;;;;;;7.55;3.38;;;19.10;99.90;;;;;;5036450;28;20713;-63
2023/10/06 12:58:22;;;;;;;14.00;4.22;;;19.50;99.90;;;;;;5036408;28;20160;-63
2023/10/06 13:00:48;;;;;;;7.53;3.58;;;19.60;99.90;;;;;;5035861;28;20168;-62
2023/10/06 13:03:16;;;;;;;11.73;3.30;;;20.10;99.90;;;;;;5035004;28;20266;-63
2023/10/06 13:05:46;;;;;;;9.10;3.95;;;20.10;99.90;;;;;;5036250;28;20166;-62
2023/10/06 13:08:17;;;;;;;7.68;3.75;;;19.90;99.90;;;;;;5036128;28;20159;-64
2023/10/06 13:10:45;;;;;;;6.82;3.60;;;19.60;99.90;;;;;;5040446;28;20602;-62
2023/10/06 13:13:12;;;;;;;9.02;3.55;;;19.60;99.90;;;;;;5055785;28;20546;-63
2023/10/06 13:15:40;;;;;;;7.95;3.67;;;19.80;99.90;;;;;;5055602;28;20179;-63
2023/10/06 13:18:08;;;;;;;7.72;3.78;;;19.80;99.90;;;;;;5039024;28;20727;-63